Time;durP1;ratioP1;P1;durP2;ratioP2;P2;SDS_P1;SDS_P2;PMS_P1;PMS_P2;Temp;Humidity;BMP_temperature;BMP_pressure;BME280_temperature;BME280_humidity;BME280_pressure;Samples;Min_cycle;Max_cycle;Signal;HPM_P1;HPM_P2
2023/07/13 00:00:56;;;;;;;4.03;1.57;;;;;;;18.03;65.66;100410.44;4923146;29;20224;-69
2023/07/13 00:03:22;;;;;;;2.43;1.80;;;;;;;18.02;66.01;100410.47;4933674;29;20227;-69
2023/07/13 00:05:58;;;;;;;5.37;1.70;;;;;;;17.98;65.16;100403.34;4923863;29;20679;-69
2023/07/13 00:08:25;;;;;;;3.10;1.70;;;;;;;17.88;66.39;100420.50;4915773;29;20682;-69
2023/07/13 00:10:54;;;;;;;2.47;1.80;;;;;;;17.80;65.78;100396.50;4932228;29;20231;-69
2023/07/13 00:13:20;;;;;;;3.63;1.70;;;;;;;17.74;67.82;100410.00;4927614;29;20250;-69
2023/07/13 00:15:47;;;;;;;2.90;1.80;;;;;;;17.75;66.86;100409.09;4922257;29;20222;-69
2023/07/13 00:18:14;;;;;;;2.03;1.40;;;;;;;17.85;65.54;100418.75;4929198;29;20222;-69
2023/07/13 00:20:41;;;;;;;1.60;1.50;;;;;;;17.95;64.92;100416.81;4929382;29;20511;-69
2023/07/13 00:23:07;;;;;;;2.87;1.80;;;;;;;17.94;64.63;100407.00;4928730;29;20278;-69
2023/07/13 00:25:34;;;;;;;3.27;1.60;;;;;;;17.99;64.43;100421.19;4926833;29;20294;-69
2023/07/13 00:28:02;;;;;;;3.53;1.50;;;;;;;17.98;64.56;100414.06;4931169;29;20285;-69
2023/07/13 00:30:28;;;;;;;2.33;1.73;;;;;;;17.99;65.37;100423.88;4931285;29;20290;-68
2023/07/13 00:32:55;;;;;;;4.77;1.47;;;;;;;18.15;62.72;100425.41;4930599;29;20219;-69
2023/07/13 00:35:43;;;;;;;3.93;1.63;;;;;;;18.03;63.83;100422.94;4916869;29;20226;-69
2023/07/13 00:38:11;;;;;;;3.73;1.70;;;;;;;17.92;64.05;100423.09;4914596;29;20207;-69
2023/07/13 00:40:37;;;;;;;3.00;1.70;;;;;;;17.80;64.99;100428.66;4927278;29;20790;-69
2023/07/13 00:43:11;;;;;;;3.20;1.67;;;;;;;17.65;65.35;100431.53;4930886;29;20222;-69
2023/07/13 00:45:58;;;;;;;3.67;1.50;;;;;;;17.47;66.87;100436.25;4927497;29;20230;-69
2023/07/13 00:48:29;;;;;;;3.70;1.70;;;;;;;17.61;66.09;100438.75;4920255;29;20203;-69
2023/07/13 00:50:58;;;;;;;3.73;1.93;;;;;;;17.52;66.31;100442.41;4929073;29;20587;-69
2023/07/13 00:53:27;;;;;;;2.93;1.70;;;;;;;17.38;66.80;100436.38;4918026;29;20725;-69
2023/07/13 00:55:55;;;;;;;4.63;1.80;;;;;;;17.27;67.72;100441.00;4925252;29;20206;-69
2023/07/13 00:58:23;;;;;;;3.70;1.60;;;;;;;17.11;68.41;100434.94;4925556;29;20728;-69
2023/07/13 01:00:51;;;;;;;3.23;1.60;;;;;;;17.09;70.21;100446.56;4916597;29;20266;-69
2023/07/13 01:03:18;;;;;;;1.60;1.50;;;;;;;16.92;70.65;100444.09;4924513;29;20220;-69
2023/07/13 01:05:48;;;;;;;3.30;1.60;;;;;;;16.76;71.51;100439.81;4922495;29;20195;-69
2023/07/13 01:08:15;;;;;;;6.17;2.10;;;;;;;16.76;71.33;100442.47;4931037;29;20600;-69
2023/07/13 01:10:54;;;;;;;4.40;1.70;;;;;;;16.83;71.99;100447.78;4928701;29;20259;-69
2023/07/13 01:13:20;;;;;;;3.23;1.60;;;;;;;17.04;69.94;100445.75;4925349;29;20233;-69
2023/07/13 01:15:49;;;;;;;3.30;1.60;;;;;;;17.17;69.43;100440.19;4927173;29;20289;-70
2023/07/13 01:18:21;;;;;;;4.20;1.70;;;;;;;17.29;69.63;100449.00;4928360;29;20226;-69
2023/07/13 01:20:58;;;;;;;4.50;1.60;;;;;;;17.30;68.94;100446.31;4918813;29;20269;-69
2023/07/13 01:23:26;;;;;;;2.73;1.30;;;;;;;17.32;69.31;100448.97;4928221;29;20250;-69
2023/07/13 01:25:53;;;;;;;3.73;1.67;;;;;;;17.26;69.81;100441.91;4930869;29;20294;-69
2023/07/13 01:28:20;;;;;;;3.20;1.60;;;;;;;17.30;71.12;100446.31;4928486;29;20791;-69
2023/07/13 01:30:46;;;;;;;2.50;1.60;;;;;;;17.36;70.08;100439.97;4927822;29;20652;-69
2023/07/13 01:33:15;;;;;;;3.00;1.60;;;;;;;17.32;70.09;100443.59;4929486;29;20637;-69
2023/07/13 01:35:42;;;;;;;3.80;1.77;;;;;;;17.11;70.84;100445.63;4928688;29;20218;-69
2023/07/13 01:38:10;;;;;;;2.60;1.77;;;;;;;17.06;71.62;100447.50;4929075;29;20301;-69
2023/07/13 01:40:38;;;;;;;3.53;1.80;;;;;;;16.85;72.80;100451.31;4929858;29;20579;-69
2023/07/13 01:43:04;;;;;;;5.47;1.90;;;;;;;16.68;74.43;100452.38;4931116;29;20254;-69
2023/07/13 01:45:31;;;;;;;2.80;1.60;;;;;;;16.54;75.11;100450.72;4929322;29;20203;-69
2023/07/13 01:47:58;;;;;;;4.10;1.70;;;;;;;16.38;76.97;100434.81;4919164;29;20286;-69
2023/07/13 01:50:25;;;;;;;3.97;1.70;;;;;;;16.44;77.98;100449.03;4920706;29;20222;-69
2023/07/13 01:52:52;;;;;;;3.77;1.90;;;;;;;16.31;77.93;100447.34;4925178;29;20722;-69
2023/07/13 01:55:20;;;;;;;2.57;1.50;;;;;;;16.17;79.09;100450.16;4927865;29;20199;-69
2023/07/13 01:57:46;;;;;;;3.07;1.60;;;;;;;16.06;79.43;100445.81;4918770;29;20210;-69
2023/07/13 02:00:15;;;;;;;2.77;1.60;;;;;;;16.04;78.03;100445.81;4927101;29;20241;-69
2023/07/13 02:02:42;;;;;;;4.17;1.70;;;;;;;15.97;79.92;100449.41;4928222;29;20226;-69
2023/07/13 02:05:12;;;;;;;3.57;1.63;;;;;;;16.02;81.32;100455.63;4925517;29;20620;-69
2023/07/13 02:07:39;;;;;;;2.90;1.70;;;;;;;15.90;81.58;100461.94;4929556;29;20779;-69
2023/07/13 02:10:07;;;;;;;3.53;1.80;;;;;;;15.79;83.26;100461.13;4930125;29;20205;-69
2023/07/13 02:12:34;;;;;;;4.40;1.77;;;;;;;15.78;84.38;100464.69;4929440;29;20222;-69
2023/07/13 02:15:01;;;;;;;2.80;1.60;;;;;;;15.84;84.64;100466.44;4921609;29;20207;-69
2023/07/13 02:17:27;;;;;;;2.37;1.60;;;;;;;15.88;84.20;100465.53;4927224;29;20201;-69
2023/07/13 02:19:54;;;;;;;3.33;1.60;;;;;;;15.81;86.03;100466.47;4929199;29;20237;-69
2023/07/13 02:22:21;;;;;;;2.53;1.50;;;;;;;15.75;85.46;100464.72;4928832;29;20235;-69
2023/07/13 02:24:48;;;;;;;2.17;1.53;;;;;;;15.86;86.85;100464.66;4928739;29;20207;-69
2023/07/13 02:27:15;;;;;;;3.43;1.70;;;;;;;15.84;86.98;100472.66;4922281;29;20286;-69
2023/07/13 02:29:42;;;;;;;2.47;1.57;;;;;;;15.90;85.05;100467.28;4934264;29;20206;-69
2023/07/13 02:32:08;;;;;;;3.63;1.90;;;;;;;15.80;87.02;100478.03;4924113;29;20200;-69
2023/07/13 02:34:34;;;;;;;3.73;1.80;;;;;;;15.65;86.64;100474.59;4929457;29;20214;-69
2023/07/13 02:37:01;;;;;;;4.20;1.93;;;;;;;15.65;86.49;100465.69;4910391;29;20543;-69
2023/07/13 02:39:28;;;;;;;4.47;1.80;;;;;;;15.81;84.46;100464.69;4922737;29;20206;-69
2023/07/13 02:41:54;;;;;;;4.17;1.63;;;;;;;15.86;84.21;100469.97;4928314;29;20219;-69
2023/07/13 02:44:21;;;;;;;3.77;2.30;;;;;;;15.92;82.69;100461.94;4928131;29;20321;-69
2023/07/13 02:46:47;;;;;;;3.07;1.70;;;;;;;15.83;83.37;100473.56;4929462;29;20211;-69
2023/07/13 02:49:13;;;;;;;4.17;2.00;;;;;;;15.74;83.85;100472.75;4928993;29;20287;-69
2023/07/13 02:51:40;;;;;;;3.00;1.50;;;;;;;15.66;82.63;100484.38;4929768;29;20695;-69
2023/07/13 02:54:08;;;;;;;3.10;1.67;;;;;;;15.60;84.69;100483.50;4923506;29;20215;-69
2023/07/13 02:56:34;;;;;;;4.27;1.67;;;;;;;15.66;83.43;100470.13;4927608;29;20285;-69
2023/07/13 02:59:02;;;;;;;3.67;1.90;;;;;;;15.69;84.26;100471.88;4941316;28;20285;-69
2023/07/13 03:01:29;;;;;;;4.50;1.67;;;;;;;15.75;83.40;100458.50;4929529;29;20747;-69
2023/07/13 03:03:55;;;;;;;4.23;2.30;;;;;;;15.65;86.41;100463.03;4923311;29;20307;-69
2023/07/13 03:06:22;;;;;;;3.47;1.60;;;;;;;15.49;89.45;100480.84;4918553;29;20203;-69
2023/07/13 03:08:49;;;;;;;3.27;1.40;;;;;;;15.44;85.98;100479.09;4928996;29;20281;-69
2023/07/13 03:11:18;;;;;;;3.17;1.57;;;;;;;15.52;85.43;100482.63;4927566;29;20286;-69
2023/07/13 03:13:45;;;;;;;3.57;1.90;;;;;;;15.36;85.60;100476.47;4926800;29;20295;-69
2023/07/13 03:16:12;;;;;;;4.77;1.87;;;;;;;15.31;85.66;100478.28;4925124;29;20236;-69
2023/07/13 03:18:42;;;;;;;3.60;1.80;;;;;;;15.22;87.64;100479.22;4919380;29;20207;-69
2023/07/13 03:21:08;;;;;;;2.60;1.87;;;;;;;15.04;89.71;100477.47;4923244;29;20214;-69
2023/07/13 03:23:35;;;;;;;5.40;1.77;;;;;;;14.93;90.94;100483.75;4923765;29;20227;-69
2023/07/13 03:26:07;;;;;;;4.23;1.70;;;;;;;14.94;88.54;100477.53;4916616;29;20291;-68
2023/07/13 03:28:35;;;;;;;3.10;1.93;;;;;;;14.91;89.13;100486.44;4926794;29;20235;-68
2023/07/13 03:31:04;;;;;;;3.43;1.60;;;;;;;14.97;88.41;100488.19;4927734;29;20221;-68
2023/07/13 03:33:30;;;;;;;2.43;1.50;;;;;;;14.92;88.24;100496.19;4917041;29;20726;-69
2023/07/13 03:35:57;;;;;;;4.47;1.60;;;;;;;14.83;89.99;100498.91;4923656;29;20657;-69
2023/07/13 03:38:23;;;;;;;3.00;1.90;;;;;;;15.00;89.14;100501.50;4913346;29;20234;-69
2023/07/13 03:40:50;;;;;;;3.63;1.83;;;;;;;14.86;89.39;100506.88;4921538;29;20478;-69
2023/07/13 03:43:16;;;;;;;4.93;2.10;;;;;;;14.92;90.94;100509.53;4911176;29;20218;-69
2023/07/13 03:45:43;;;;;;;5.27;1.80;;;;;;;14.93;88.60;100513.09;4921795;29;20239;-69
2023/07/13 03:48:09;;;;;;;2.40;1.63;;;;;;;14.87;89.51;100516.66;4921144;29;20693;-69
2023/07/13 03:50:36;;;;;;;2.77;1.70;;;;;;;14.82;90.59;100512.22;4902936;29;20199;-69
2023/07/13 03:53:02;;;;;;;3.00;1.80;;;;;;;15.15;88.19;100521.91;4928832;29;20253;-68
2023/07/13 03:55:29;;;;;;;5.17;2.00;;;;;;;15.21;86.90;100520.13;4923936;29;20203;-69
2023/07/13 03:58:21;;;;;;;2.63;1.67;;;;;;;15.13;87.64;100523.69;4922061;29;20644;-69
2023/07/13 04:00:47;;;;;;;3.77;1.50;;;;;;;15.16;89.52;100523.69;4913048;29;20206;-69
2023/07/13 04:03:13;;;;;;;5.17;1.97;;;;;;;15.19;89.49;100526.34;4930353;29;20227;-69
2023/07/13 04:05:40;;;;;;;4.63;1.60;;;;;;;15.11;91.04;100531.69;4928725;29;20196;-69
2023/07/13 04:08:07;;;;;;;4.03;1.80;;;;;;;15.11;93.17;100531.69;4931290;29;20241;-69
2023/07/13 04:10:34;;;;;;;4.00;1.87;;;;;;;15.25;91.75;100529.91;4929879;29;20583;-69
2023/07/13 04:13:00;;;;;;;5.50;2.37;;;;;;;15.28;92.38;100529.88;4925708;29;20226;-69
2023/07/13 04:15:31;;;;;;;2.47;1.80;;;;;;;15.33;91.91;100529.88;4926124;29;20213;-69
2023/07/13 04:17:58;;;;;;;2.70;1.73;;;;;;;15.28;92.42;100521.88;4924757;29;20295;-69
2023/07/13 04:20:25;;;;;;;4.13;2.10;;;;;;;15.32;93.74;100515.63;4926998;29;20562;-69
2023/07/13 04:22:55;;;;;;;3.33;2.20;;;;;;;15.35;93.69;100522.75;4944736;23;20463;-68
2023/07/13 04:25:22;;;;;;;4.17;2.70;;;;;;;15.51;95.15;100528.88;4953941;28;20612;-68
2023/07/13 04:27:49;;;;;;;4.30;2.40;;;;;;;15.53;94.86;100527.09;4951420;28;20254;-68
2023/07/13 04:30:16;;;;;;;4.63;2.50;;;;;;;15.54;95.92;100532.44;4938781;28;20199;-68
2023/07/13 04:32:42;;;;;;;6.77;2.70;;;;;;;15.50;95.98;100533.34;4951693;28;20226;-68
2023/07/13 04:35:09;;;;;;;4.97;2.63;;;;;;;15.60;96.67;100528.88;4928721;28;20207;-68
2023/07/13 04:37:35;;;;;;;3.97;2.60;;;;;;;15.64;95.72;100528.00;4947571;29;20202;-68
2023/07/13 04:40:03;;;;;;;4.97;2.70;;;;;;;15.70;96.38;100530.63;4947722;28;20261;-68
2023/07/13 04:42:29;;;;;;;4.40;2.70;;;;;;;15.73;96.72;100532.38;4948979;28;20774;-68
2023/07/13 04:44:56;;;;;;;6.43;3.03;;;;;;;15.77;98.23;100521.69;4944814;28;20247;-68
2023/07/13 04:47:22;;;;;;;6.03;2.70;;;;;;;15.96;96.50;100520.66;4950505;28;20603;-68
2023/07/13 04:49:49;;;;;;;5.40;2.50;;;;;;;15.93;95.50;100531.34;4948651;28;20203;-69
2023/07/13 04:52:15;;;;;;;4.13;2.20;;;;;;;16.02;94.19;100533.13;4949777;28;20286;-68
2023/07/13 04:54:42;;;;;;;4.50;2.23;;;;;;;16.04;94.07;100530.44;4948603;28;20228;-68
2023/07/13 04:57:08;;;;;;;4.20;1.83;;;;;;;16.07;93.49;100525.94;4948136;29;20685;-69
2023/07/13 04:59:35;;;;;;;4.10;2.20;;;;;;;16.18;91.64;100526.75;4950245;29;20225;-68
2023/07/13 05:02:01;;;;;;;4.47;2.20;;;;;;;16.22;91.98;100535.63;4944460;28;20545;-69
2023/07/13 05:04:28;;;;;;;5.90;2.73;;;;;;;16.27;91.14;100529.34;4950413;28;20230;-68
2023/07/13 05:06:54;;;;;;;3.53;2.00;;;;;;;16.39;91.15;100531.03;4946007;28;20201;-69
2023/07/13 05:09:21;;;;;;;5.93;2.47;;;;;;;16.39;91.23;100531.03;4944148;29;20832;-68
2023/07/13 05:11:47;;;;;;;2.90;2.07;;;;;;;16.47;90.62;100534.56;4944744;28;20200;-68
2023/07/13 05:14:15;;;;;;;3.00;2.20;;;;;;;16.55;90.34;100529.13;4949349;29;20226;-68
2023/07/13 05:16:42;;;;;;;3.60;2.10;;;;;;;16.76;85.93;100538.78;4944255;29;20222;-68
2023/07/13 05:19:09;;;;;;;3.67;2.03;;;;;;;16.86;83.47;100535.13;4944814;28;20761;-68
2023/07/13 05:21:36;;;;;;;2.37;1.77;;;;;;;16.92;82.98;100535.06;4942195;29;20229;-68
2023/07/13 05:24:02;;;;;;;2.93;1.60;;;;;;;16.96;82.09;100538.59;4945527;29;20226;-70
2023/07/13 05:26:40;;;;;;;5.27;1.80;;;;;;;17.05;81.42;100541.16;4941642;29;20293;-69
2023/07/13 05:29:06;;;;;;;3.77;2.00;;;;;;;17.22;79.10;100545.44;4944364;29;20207;-68
2023/07/13 05:31:33;;;;;;;3.33;1.90;;;;;;;17.31;77.14;100548.91;4945636;28;20194;-68
2023/07/13 05:33:59;;;;;;;5.90;2.03;;;;;;;17.40;75.26;100548.81;4945776;29;20230;-68
2023/07/13 05:36:26;;;;;;;2.50;2.00;;;;;;;17.50;75.19;100558.50;4942486;29;20309;-68
2023/07/13 05:38:52;;;;;;;4.13;2.00;;;;;;;17.55;74.27;100551.28;4943345;28;20226;-68
2023/07/13 05:41:19;;;;;;;5.33;2.37;;;;;;;17.63;73.67;100552.09;4945987;29;20811;-68
2023/07/13 05:43:45;;;;;;;6.43;2.13;;;;;;;17.69;73.72;100554.72;4946307;28;20226;-71
2023/07/13 05:46:11;;;;;;;4.87;2.20;;;;;;;17.71;73.63;100546.66;4944261;29;20498;-70
2023/07/13 05:48:38;;;;;;;4.97;1.97;;;;;;;17.83;73.93;100550.06;4948003;29;20693;-72
2023/07/13 05:51:05;;;;;;;5.20;1.87;;;;;;;18.01;72.88;100550.69;4943481;29;20201;-71
2023/07/13 05:53:31;;;;;;;4.73;1.70;;;;;;;18.22;71.07;100549.50;4946572;28;20258;-71
2023/07/13 05:55:58;;;;;;;2.10;1.30;;;;;;;18.95;66.80;100548.31;4946981;29;20198;-71
2023/07/13 05:58:28;;;;;;;3.93;1.60;;;;;;;19.89;62.50;100554.47;4947849;29;20670;-70
2023/07/13 06:01:11;;;;;;;3.07;1.47;;;;;;;20.46;59.68;100548.72;4947075;29;20199;-72
2023/07/13 06:03:38;;;;;;;1.73;1.20;;;;;;;20.31;60.21;100543.66;4944177;29;20706;-71
2023/07/13 06:06:06;;;;;;;4.93;1.50;;;;;;;19.81;61.30;100558.25;4943298;28;20258;-69
2023/07/13 06:08:33;;;;;;;3.53;1.33;;;;;;;19.49;61.72;100556.22;4936319;29;20719;-69
2023/07/13 06:11:20;;;;;;;6.07;1.40;;;;;;;19.30;62.32;100559.28;4931080;28;20213;-69
2023/07/13 06:13:47;;;;;;;2.17;1.20;;;;;;;19.17;63.05;100563.09;4947556;29;20300;-69
2023/07/13 06:16:14;;;;;;;2.53;1.20;;;;;;;19.12;63.07;100556.94;4947862;29;20213;-69
2023/07/13 06:18:41;;;;;;;3.07;1.40;;;;;;;19.24;62.64;100550.47;4946079;28;20202;-68
2023/07/13 06:21:17;;;;;;;2.93;1.10;;;;;;;19.35;62.51;100562.75;4947880;29;20206;-69
2023/07/13 06:23:47;;;;;;;2.60;1.33;;;;;;;19.44;62.48;100571.53;4950397;29;20229;-68
2023/07/13 06:26:14;;;;;;;2.60;1.40;;;;;;;19.48;63.57;100576.81;4947462;29;20207;-68
2023/07/13 06:28:41;;;;;;;2.57;1.40;;;;;;;19.50;64.56;100569.59;4948340;29;20269;-68
2023/07/13 06:31:10;;;;;;;4.80;1.30;;;;;;;19.53;65.22;100577.63;4941233;29;20198;-70
2023/07/13 06:33:37;;;;;;;2.53;1.47;;;;;;;19.53;64.21;100571.38;4946319;29;20214;-72
2023/07/13 06:36:05;;;;;;;2.40;1.27;;;;;;;19.60;63.85;100579.28;4944433;29;20224;-69
2023/07/13 06:38:31;;;;;;;2.67;1.20;;;;;;;19.68;63.48;100579.16;4943069;29;20198;-69
2023/07/13 06:40:58;;;;;;;3.33;1.30;;;;;;;19.68;63.00;100585.41;4948033;29;20205;-70
2023/07/13 06:43:24;;;;;;;4.07;1.33;;;;;;;19.83;62.91;100577.94;4919330;28;20312;-69
2023/07/13 06:45:54;;;;;;;1.83;1.10;;;;;;;19.87;62.00;100580.50;4944878;29;20721;-69
2023/07/13 06:48:20;;;;;;;2.60;1.50;;;;;;;20.03;61.50;100581.97;4944561;29;20234;-71
2023/07/13 06:50:49;;;;;;;4.00;1.17;;;;;;;20.11;60.83;100589.84;4945611;29;20761;-69
2023/07/13 06:53:15;;;;;;;3.80;1.20;;;;;;;20.17;60.76;100592.41;4944279;29;20222;-69
2023/07/13 06:55:44;;;;;;;4.50;1.17;;;;;;;20.30;60.77;100588.50;4944422;29;20204;-69
2023/07/13 06:58:11;;;;;;;2.30;1.30;;;;;;;20.43;59.79;100583.78;4945522;28;20229;-69
2023/07/13 07:00:40;;;;;;;2.92;1.15;;;;;;;20.65;59.04;100578.72;4946844;29;20622;-69
2023/07/13 07:03:06;;;;;;;1.70;0.85;;;;;;;20.97;57.46;100586.00;4946201;29;20222;-71
2023/07/13 07:05:33;;;;;;;1.58;1.00;;;;;;;21.18;56.81;100587.22;4944391;29;20293;-69
2023/07/13 07:07:59;;;;;;;3.90;1.20;;;;;;;22.01;54.64;100577.69;4944181;28;20210;-69
2023/07/13 07:10:26;;;;;;;2.90;1.00;;;;;;;23.13;51.55;100590.25;4946610;29;20207;-69
2023/07/13 07:12:53;;;;;;;2.08;1.08;;;;;;;24.53;47.56;100594.03;4945809;29;20221;-69
2023/07/13 07:15:19;;;;;;;1.38;1.00;;;;;;;26.24;42.06;100587.34;4947060;29;20221;-69
2023/07/13 07:17:46;;;;;;;2.38;0.95;;;;;;;27.17;39.61;100590.88;4952032;28;20206;-69
2023/07/13 07:20:12;;;;;;;3.97;1.15;;;;;;;28.88;36.18;100595.06;4948917;28;20662;-70
2023/07/13 07:22:39;;;;;;;5.68;1.08;;;;;;;30.03;33.62;100592.53;4934226;29;20476;-70
2023/07/13 07:25:09;;;;;;;2.33;1.10;;;;;;;30.48;31.41;100588.66;4952937;29;20285;-70
2023/07/13 07:27:35;;;;;;;1.98;1.00;;;;;;;30.85;31.33;100592.59;4953325;28;20277;-70
2023/07/13 07:30:05;;;;;;;3.42;1.13;;;;;;;30.51;29.99;100595.78;4953199;28;20206;-69
2023/07/13 07:32:34;;;;;;;3.85;1.05;;;;;;;30.10;31.52;100606.69;4953395;28;20197;-70
2023/07/13 07:35:04;;;;;;;5.72;1.80;;;;;;;29.59;32.00;100603.47;4950177;28;20292;-70
2023/07/13 07:37:30;;;;;;;4.88;1.05;;;;;;;29.07;32.68;100600.28;4952989;29;20194;-70
2023/07/13 07:40:00;;;;;;;3.22;1.27;;;;;;;28.82;33.32;100607.19;4953656;29;20305;-69
2023/07/13 07:42:29;;;;;;;1.50;1.10;;;;;;;29.08;32.53;100607.50;4952380;28;20228;-69
2023/07/13 07:44:55;;;;;;;1.83;1.10;;;;;;;28.87;32.15;100613.28;4946937;28;20684;-70
2023/07/13 07:47:23;;;;;;;2.80;1.08;;;;;;;28.66;32.78;100617.22;4950714;28;20478;-69
2023/07/13 07:49:50;;;;;;;2.15;0.88;;;;;;;28.86;31.85;100610.66;4958793;29;20202;-70
2023/07/13 07:52:16;;;;;;;2.78;1.00;;;;;;;27.85;33.64;100608.13;4960763;28;20222;-70
2023/07/13 07:54:43;;;;;;;5.25;1.05;;;;;;;28.06;32.27;100611.53;4955123;29;20218;-70
2023/07/13 07:57:12;;;;;;;2.67;1.10;;;;;;;27.65;34.34;100613.78;4944348;29;20202;-70
2023/07/13 07:59:41;;;;;;;3.58;1.20;;;;;;;28.15;33.22;100608.28;4934373;29;20225;-70
2023/07/13 08:02:11;;;;;;;2.58;1.00;;;;;;;28.84;32.85;100608.00;4936722;28;20236;-67
2023/07/13 08:04:57;;;;;;;2.47;0.90;;;;;;;27.81;34.45;100609.25;4953168;29;20639;-68
2023/07/13 08:07:27;;;;;;;1.63;1.15;;;;;;;28.59;33.72;100608.53;4947077;28;20261;-68
2023/07/13 08:09:54;;;;;;;1.35;0.93;;;;;;;28.59;33.00;100615.81;4949857;28;20750;-68
2023/07/13 08:12:21;;;;;;;3.35;0.90;;;;;;;28.59;31.66;100611.25;4951857;28;20522;-67
2023/07/13 08:14:53;;;;;;;2.67;0.90;;;;;;;27.13;32.04;100611.91;4951148;28;20206;-68
2023/07/13 08:17:23;;;;;;;1.80;0.80;;;;;;;27.06;33.67;100618.63;4951730;28;20222;-69
2023/07/13 08:19:50;;;;;;;1.25;0.88;;;;;;;27.59;34.34;100611.34;4953804;28;20201;-69
2023/07/13 08:22:17;;;;;;;1.40;1.00;;;;;;;27.79;32.51;100603.03;4950454;28;20746;-68
2023/07/13 08:24:43;;;;;;;2.70;1.27;;;;;;;28.19;32.41;100611.72;4951223;28;20261;-69
2023/07/13 08:27:11;;;;;;;2.90;1.00;;;;;;;28.45;31.94;100607.56;4950937;28;20671;-68
2023/07/13 08:29:38;;;;;;;2.45;1.10;;;;;;;27.72;33.00;100601.59;4949239;28;20201;-70
2023/07/13 08:32:09;;;;;;;3.60;0.90;;;;;;;27.61;33.08;100598.53;4930033;29;20285;-69
2023/07/13 08:34:36;;;;;;;5.00;0.80;;;;;;;26.98;34.12;100600.91;4947718;28;20594;-70
2023/07/13 08:37:02;;;;;;;4.50;1.13;;;;;;;26.79;34.95;100612.72;4946926;28;20208;-69
2023/07/13 08:39:33;;;;;;;1.90;0.93;;;;;;;26.87;34.59;100595.16;4951050;28;20678;-69
2023/07/13 08:42:35;;;;;;;4.63;0.77;;;;;;;26.43;35.09;100593.69;4945808;28;20206;-70
2023/07/13 08:45:22;;;;;;;2.65;1.00;;;;;;;26.07;36.36;100598.16;4944449;28;20197;-69
2023/07/13 08:47:54;;;;;;;2.17;1.10;;;;;;;25.92;36.45;100607.88;4931436;29;20205;-71
2023/07/13 08:50:28;;;;;;;0.80;0.70;;;;;;;25.70;35.64;100597.13;4947504;28;20214;-71
2023/07/13 08:52:56;;;;;;;2.20;1.00;;;;;;;25.46;37.06;100599.06;4948324;28;20236;-69
2023/07/13 08:55:33;;;;;;;2.30;0.90;;;;;;;25.63;36.93;100605.59;4946451;28;20203;-72
2023/07/13 08:58:06;;;;;;;1.80;0.70;;;;;;;25.86;36.32;100605.44;4933567;29;20675;-68
2023/07/13 09:00:45;;;;;;;2.80;0.60;;;;;;;25.64;35.19;100593.78;4945578;28;20591;-69
2023/07/13 09:03:26;;;;;;;1.27;0.70;;;;;;;25.36;35.96;100600.44;4937748;28;20267;-71
2023/07/13 09:05:58;;;;;;;2.20;0.75;;;;;;;25.67;36.03;100601.81;4944961;28;20682;-69
2023/07/13 09:08:51;;;;;;;3.80;0.70;;;;;;;25.85;35.38;100595.53;4938661;28;20203;-70
2023/07/13 09:11:33;;;;;;;2.05;0.80;;;;;;;25.39;35.67;100602.13;4947450;28;20198;-67
2023/07/13 09:14:24;;;;;;;3.38;0.80;;;;;;;25.46;35.10;100603.63;4946994;28;21354;-68
2023/07/13 09:16:51;;;;;;;1.92;0.70;;;;;;;25.97;35.43;100594.06;4944554;28;20201;-69
2023/07/13 09:19:28;;;;;;;1.88;0.80;;;;;;;26.01;35.69;100601.13;4948416;28;20285;-69
2023/07/13 09:21:56;;;;;;;1.90;0.90;;;;;;;26.42;34.76;100602.81;4947224;28;20198;-70
2023/07/13 09:24:34;;;;;;;3.63;0.75;;;;;;;26.54;34.25;100601.31;4946193;29;20230;-69
2023/07/13 09:27:03;;;;;;;2.55;1.05;;;;;;;26.60;34.60;100591.97;4950285;28;20240;-69
2023/07/13 09:29:34;;;;;;;1.63;0.65;;;;;;;26.93;35.18;100590.28;4950705;28;20209;-68
2023/07/13 09:32:04;;;;;;;1.65;1.00;;;;;;;26.98;34.72;100595.47;4945312;28;20668;-70
2023/07/13 09:34:33;;;;;;;2.58;0.93;;;;;;;26.88;34.32;100591.47;4946635;28;20305;-68
2023/07/13 09:36:59;;;;;;;4.97;0.88;;;;;;;26.59;35.00;100592.94;4947471;28;20205;-67
2023/07/13 09:39:31;;;;;;;1.50;0.70;;;;;;;27.03;34.29;100597.03;4947799;28;20237;-67
2023/07/13 09:42:17;;;;;;;0.77;0.60;;;;;;;27.37;34.09;100585.28;4927849;29;20245;-70
2023/07/13 09:44:47;;;;;;;1.88;0.80;;;;;;;27.59;33.86;100582.28;4948709;28;20593;-72
2023/07/13 09:47:23;;;;;;;1.33;0.80;;;;;;;27.67;33.97;100590.09;4947216;29;20201;-71
2023/07/13 09:50:06;;;;;;;0.93;0.60;;;;;;;27.64;33.33;100588.41;4951250;28;20214;-71
2023/07/13 09:52:44;;;;;;;1.98;0.90;;;;;;;27.19;33.82;100588.06;4950145;28;20202;-68
2023/07/13 09:55:31;;;;;;;1.92;0.90;;;;;;;27.28;34.22;100596.66;4944907;29;20202;-66
2023/07/13 09:57:57;;;;;;;2.20;0.80;;;;;;;27.52;33.74;100591.75;4946700;29;20220;-67
2023/07/13 10:00:27;;;;;;;1.38;0.80;;;;;;;27.86;33.04;100585.38;4933981;29;20286;-66
2023/07/13 10:03:05;;;;;;;3.30;1.10;;;;;;;27.99;33.82;100589.19;4949198;29;20245;-66
2023/07/13 10:05:38;;;;;;;2.97;1.00;;;;;;;27.94;33.27;100588.56;4948493;28;20679;-66
2023/07/13 10:08:07;;;;;;;2.22;1.00;;;;;;;28.15;32.36;100591.06;4946018;28;20194;-66
2023/07/13 10:10:36;;;;;;;2.38;0.90;;;;;;;28.29;32.60;100589.34;4944971;29;20202;-66
2023/07/13 10:13:05;;;;;;;2.15;1.10;;;;;;;27.53;32.49;100588.06;4946062;28;20496;-67
2023/07/13 10:15:32;;;;;;;2.72;1.00;;;;;;;27.10;33.86;100594.88;4946879;29;20246;-66
2023/07/13 10:17:59;;;;;;;3.80;1.00;;;;;;;27.12;32.99;100587.53;4946120;29;20200;-66
2023/07/13 10:20:26;;;;;;;1.98;0.90;;;;;;;26.97;32.77;100581.00;4947899;29;20700;-67
2023/07/13 10:23:04;;;;;;;2.03;1.20;;;;;;;26.65;32.66;100576.31;4966857;23;20225;-68
2023/07/13 10:25:39;;;;;;;3.35;1.00;;;;;;;26.71;31.58;100581.44;4922776;29;20599;-68
2023/07/13 10:28:34;;;;;;;2.35;1.15;;;;;;;27.05;31.70;100577.94;4926574;29;20211;-67
2023/07/13 10:31:02;;;;;;;2.22;1.10;;;;;;;26.74;32.22;100584.88;4923354;29;20198;-69
2023/07/13 10:33:29;;;;;;;3.25;1.02;;;;;;;27.09;31.51;100574.97;4934447;29;20907;-67
2023/07/13 10:36:08;;;;;;;1.48;1.10;;;;;;;27.32;32.33;100572.91;4944924;28;20221;-69
2023/07/13 10:38:35;;;;;;;2.30;1.00;;;;;;;27.92;31.43;100576.88;4940412;28;20614;-70
2023/07/13 10:41:05;;;;;;;2.17;1.45;;;;;;;28.19;30.21;100573.59;4945016;28;20557;-70
2023/07/13 10:43:39;;;;;;;1.85;1.00;;;;;;;27.71;30.87;100578.94;4944291;28;20585;-70
2023/07/13 10:46:09;;;;;;;2.78;1.20;;;;;;;27.81;31.25;100579.31;4941213;28;20201;-71
2023/07/13 10:48:37;;;;;;;2.70;1.42;;;;;;;27.26;31.90;100579.53;4945078;28;20211;-70
2023/07/13 10:51:06;;;;;;;4.80;1.60;;;;;;;27.39;31.46;100571.59;4951971;28;20240;-70
2023/07/13 10:53:36;;;;;;;2.63;1.13;;;;;;;27.66;31.96;100572.88;4942156;28;20265;-73
2023/07/13 10:56:22;;;;;;;4.00;2.28;;;;;;;28.23;30.44;100578.78;4944942;28;20216;-70
2023/07/13 10:59:17;;;;;;;3.13;1.95;;;;;;;28.62;29.73;100591.97;4943162;28;20202;-69
2023/07/13 11:01:51;;;;;;;2.35;1.80;;;;;;;28.30;29.85;100593.81;4944999;28;20435;-68
2023/07/13 11:04:20;;;;;;;2.30;1.13;;;;;;;28.69;29.76;100581.59;4942860;29;20334;-68
2023/07/13 11:06:49;;;;;;;2.78;1.20;;;;;;;28.82;29.69;100573.56;4944612;28;20914;-67
2023/07/13 11:09:32;;;;;;;2.67;1.23;;;;;;;28.43;30.55;100580.41;4947463;28;20210;-67
2023/07/13 11:12:00;;;;;;;3.92;1.70;;;;;;;27.95;30.42;100576.69;4944402;28;20213;-66
2023/07/13 11:14:39;;;;;;;3.97;1.92;;;;;;;27.87;31.48;100592.59;4942856;28;20802;-68
2023/07/13 11:17:36;;;;;;;1.40;1.10;;;;;;;28.33;30.31;100577.31;4945670;29;20216;-67
2023/07/13 11:20:12;;;;;;;1.63;1.27;;;;;;;28.38;31.20;100574.31;4927959;29;20237;-67
2023/07/13 11:22:44;;;;;;;2.53;1.23;;;;;;;28.76;31.15;100577.53;4938638;29;20640;-67
2023/07/13 11:25:25;;;;;;;2.30;1.30;;;;;;;28.90;29.20;100571.31;4945621;28;20277;-67
2023/07/13 11:28:03;;;;;;;4.97;1.30;;;;;;;28.90;29.45;100565.88;4944809;29;20662;-67
2023/07/13 11:30:30;;;;;;;2.17;1.48;;;;;;;28.63;29.96;100585.56;4945068;28;20265;-67
2023/07/13 11:33:12;;;;;;;4.25;1.90;;;;;;;28.17;29.65;100587.28;4945202;28;20314;-67
2023/07/13 11:35:59;;;;;;;2.60;1.30;;;;;;;28.46;29.52;100577.50;4943862;28;20209;-67